createdAt,value
2022-12-23T00:01:04.107Z,6.06
2022-12-23T00:02:06.238Z,6.05
2022-12-23T00:03:09.562Z,6.05
2022-12-23T00:04:12.884Z,6.03
2022-12-23T00:05:15.068Z,6.02
2022-12-23T00:06:20.009Z,6.02
2022-12-23T00:07:22.136Z,6.02
2022-12-23T00:08:25.980Z,6.01
2022-12-23T00:09:28.033Z,6.01
2022-12-23T00:10:31.330Z,6.01
2022-12-23T00:11:33.356Z,6.01
2022-12-23T00:12:54.041Z,6.02
2022-12-23T00:14:20.483Z,6.02
2022-12-23T00:15:26.165Z,6.00
2022-12-23T00:16:28.598Z,6.02
2022-12-23T00:17:32.210Z,6.02
2022-12-23T00:18:35.213Z,6.03
2022-12-23T00:19:38.260Z,6.02
2022-12-23T00:20:40.290Z,6.03
2022-12-23T00:21:54.749Z,6.03
2022-12-23T00:23:05.646Z,6.03
2022-12-23T00:24:08.934Z,6.04
2022-12-23T00:25:11.532Z,6.04
2022-12-23T00:26:16.474Z,6.05
2022-12-23T00:27:18.680Z,6.06
2022-12-23T00:28:23.719Z,6.07
2022-12-23T00:29:26.786Z,6.06
2022-12-23T00:30:30.173Z,6.07
2022-12-23T00:31:33.281Z,6.05
2022-12-23T00:32:35.590Z,6.07
2022-12-23T00:33:40.668Z,6.07
2022-12-23T00:34:42.898Z,6.09
2022-12-23T00:35:47.131Z,6.09
2022-12-23T00:36:49.190Z,6.08
2022-12-23T00:37:52.390Z,6.09
2022-12-23T00:39:12.954Z,6.10
2022-12-23T00:40:30.311Z,6.11
2022-12-23T00:41:50.594Z,6.12
2022-12-23T00:42:56.652Z,6.13
2022-12-23T00:43:58.969Z,6.14
2022-12-23T00:45:15.981Z,6.14
2022-12-23T00:46:20.703Z,6.14
2022-12-23T00:47:45.965Z,6.13
2022-12-23T00:49:06.372Z,6.15
2022-12-23T00:50:10.756Z,6.14
2022-12-23T00:51:12.964Z,6.14
2022-12-23T00:52:16.524Z,6.15
2022-12-23T00:53:18.598Z,6.15
2022-12-23T00:54:21.678Z,6.16
2022-12-23T00:55:24.460Z,6.17
2022-12-23T00:56:27.480Z,6.17
2022-12-23T00:57:29.489Z,6.18
2022-12-23T00:58:32.963Z,6.18
2022-12-23T00:59:35.273Z,6.17
2022-12-23T01:01:04.311Z,6.16
2022-12-23T01:02:36.290Z,6.17
2022-12-23T01:03:56.950Z,6.17
2022-12-23T01:05:17.132Z,6.17
2022-12-23T01:06:20.107Z,6.19
2022-12-23T01:07:22.747Z,6.18
2022-12-23T01:08:25.777Z,6.20
2022-12-23T01:09:27.925Z,6.20
2022-12-23T01:10:31.013Z,6.19
2022-12-23T01:11:33.043Z,6.16
2022-12-23T01:12:36.128Z,6.16
2022-12-23T01:13:38.520Z,6.14
2022-12-23T01:14:41.870Z,6.15
2022-12-23T01:15:43.894Z,6.14
2022-12-23T01:16:46.082Z,6.12
2022-12-23T01:17:50.817Z,6.13
2022-12-23T01:18:52.848Z,6.12
2022-12-23T01:19:55.882Z,6.12
2022-12-23T01:21:01.866Z,6.11
2022-12-23T01:22:04.981Z,6.12
2022-12-23T01:23:07.629Z,6.12
2022-12-23T01:24:10.805Z,6.11
2022-12-23T01:25:13.348Z,6.12
2022-12-23T01:26:16.859Z,6.13
2022-12-23T01:27:18.970Z,6.13
2022-12-23T01:28:22.035Z,6.13
2022-12-23T01:29:24.643Z,6.13
2022-12-23T01:30:27.670Z,6.13
2022-12-23T01:31:29.848Z,6.13
2022-12-23T01:32:33.231Z,6.14
2022-12-23T01:33:36.628Z,6.15
2022-12-23T01:34:39.754Z,6.16
2022-12-23T01:35:41.819Z,6.15
2022-12-23T01:36:44.949Z,6.16
2022-12-23T01:37:47.102Z,6.16
2022-12-23T01:38:50.289Z,6.17
2022-12-23T01:39:52.388Z,6.18
2022-12-23T01:40:55.570Z,6.19
2022-12-23T01:42:15.940Z,6.19
2022-12-23T01:43:20.019Z,6.20
2022-12-23T01:44:49.827Z,6.21
2022-12-23T01:45:52.976Z,6.21
2022-12-23T01:46:55.075Z,6.22
2022-12-23T01:48:00.027Z,6.22
2022-12-23T01:49:03.588Z,6.22
2022-12-23T01:50:11.164Z,6.20
2022-12-23T01:51:15.850Z,6.21
2022-12-23T01:52:19.393Z,6.19
2022-12-23T01:53:27.307Z,6.20
2022-12-23T01:54:29.336Z,6.20
2022-12-23T01:55:36.588Z,6.21
2022-12-23T01:56:40.029Z,6.22
2022-12-23T01:57:45.511Z,6.22
2022-12-23T01:58:52.902Z,6.23
2022-12-23T02:00:21.789Z,6.23
2022-12-23T02:01:43.424Z,6.23
2022-12-23T02:03:05.090Z,6.23
2022-12-23T02:04:12.972Z,6.23
2022-12-23T02:05:16.149Z,6.23
2022-12-23T02:06:39.501Z,6.22
2022-12-23T02:08:01.105Z,6.24
2022-12-23T02:09:19.498Z,6.25
2022-12-23T02:10:27.938Z,6.26
2022-12-23T02:11:47.911Z,6.25
2022-12-23T02:13:02.499Z,6.26
2022-12-23T02:14:47.103Z,6.25
2022-12-23T02:16:16.701Z,6.23
2022-12-23T02:17:25.130Z,6.25
2022-12-23T02:18:53.233Z,6.25
2022-12-23T02:20:34.857Z,6.26
2022-12-23T02:21:48.287Z,6.27
2022-12-23T02:23:20.392Z,6.28
2022-12-23T02:24:55.680Z,6.30
2022-12-23T02:26:29.458Z,6.30
2022-12-23T02:27:33.271Z,6.30
2022-12-23T02:29:00.587Z,6.31
2022-12-23T02:30:35.687Z,6.31
2022-12-23T02:31:45.327Z,6.33
2022-12-23T02:33:14.341Z,6.32
2022-12-23T02:34:20.106Z,6.33
2022-12-23T02:35:30.437Z,6.33
2022-12-23T02:36:40.373Z,6.34
2022-12-23T02:37:50.566Z,6.33
2022-12-23T02:39:01.365Z,6.34
2022-12-23T02:40:08.734Z,6.34
2022-12-23T02:41:20.760Z,6.34
2022-12-23T02:42:26.066Z,6.34
2022-12-23T02:43:36.602Z,6.34
2022-12-23T02:44:45.835Z,6.34
2022-12-23T02:45:57.425Z,6.34
2022-12-23T02:47:02.234Z,6.35
2022-12-23T02:48:08.657Z,6.34
2022-12-23T02:49:15.266Z,6.34
2022-12-23T02:50:24.448Z,6.35
2022-12-23T02:51:33.648Z,6.36
2022-12-23T02:52:38.987Z,6.36
2022-12-23T02:53:47.632Z,6.38
2022-12-23T02:54:54.107Z,6.38
2022-12-23T02:55:57.259Z,6.40
2022-12-23T02:57:02.576Z,6.40
2022-12-23T02:58:09.759Z,6.40
2022-12-23T02:59:16.894Z,6.41
2022-12-23T03:00:19.800Z,6.42
2022-12-23T03:01:27.274Z,6.42
2022-12-23T03:02:30.983Z,6.42
2022-12-23T03:03:35.153Z,6.41
2022-12-23T03:04:42.152Z,6.41
2022-12-23T03:05:47.647Z,6.41
2022-12-23T03:06:53.194Z,6.43
2022-12-23T03:08:00.444Z,6.43
2022-12-23T03:09:02.453Z,6.45
2022-12-23T03:10:14.604Z,6.44
2022-12-23T03:11:18.360Z,6.44
2022-12-23T03:12:26.013Z,6.45
2022-12-23T03:13:41.830Z,6.45
2022-12-23T03:14:59.314Z,6.45
2022-12-23T03:16:11.963Z,6.44
2022-12-23T03:17:28.632Z,6.43
2022-12-23T03:18:39.879Z,6.44
2022-12-23T03:19:50.464Z,6.44
2022-12-23T03:20:57.316Z,6.43
2022-12-23T03:22:09.433Z,6.42
2022-12-23T03:23:21.871Z,6.43
2022-12-23T03:24:36.277Z,6.42
2022-12-23T03:25:43.855Z,6.42
2022-12-23T03:26:53.281Z,6.42
2022-12-23T03:28:01.356Z,6.44
2022-12-23T03:29:12.177Z,6.43
2022-12-23T03:30:15.060Z,6.44
2022-12-23T03:31:27.449Z,6.46
2022-12-23T03:32:35.513Z,6.45
2022-12-23T03:33:42.557Z,6.48
2022-12-23T03:34:47.623Z,6.48
2022-12-23T03:35:55.043Z,6.49
2022-12-23T03:37:00.867Z,6.49
2022-12-23T03:38:05.091Z,6.50
2022-12-23T03:39:13.138Z,6.50
2022-12-23T03:40:20.926Z,6.51
2022-12-23T03:41:27.950Z,6.52
2022-12-23T03:42:34.797Z,6.52
2022-12-23T03:43:48.377Z,6.53
2022-12-23T03:45:19.664Z,6.53
2022-12-23T03:46:29.877Z,6.55
2022-12-23T03:47:38.431Z,6.55
2022-12-23T03:48:45.866Z,6.54
2022-12-23T03:49:52.961Z,6.56
2022-12-23T03:51:05.458Z,6.56
2022-12-23T03:52:18.858Z,6.56
2022-12-23T03:53:29.450Z,6.57
2022-12-23T03:54:36.951Z,6.56
2022-12-23T03:55:45.868Z,6.57
2022-12-23T03:56:54.035Z,6.56
2022-12-23T03:58:07.891Z,6.54
2022-12-23T03:59:14.672Z,6.53
2022-12-23T04:00:17.946Z,6.53
2022-12-23T04:01:27.555Z,6.52
2022-12-23T04:02:40.628Z,6.51
2022-12-23T04:03:50.072Z,6.48
2022-12-23T04:05:08.948Z,6.49
2022-12-23T04:06:16.185Z,6.50
2022-12-23T04:07:23.717Z,6.48
2022-12-23T04:08:30.433Z,6.47
2022-12-23T04:09:34.252Z,6.46
2022-12-23T04:10:36.401Z,6.46
2022-12-23T04:11:39.825Z,6.47
2022-12-23T04:12:42.138Z,6.47
2022-12-23T04:13:45.190Z,6.46
2022-12-23T04:14:49.123Z,6.46
2022-12-23T04:15:52.270Z,6.46
2022-12-23T04:16:56.119Z,6.45
2022-12-23T04:18:00.620Z,6.45
2022-12-23T04:19:02.773Z,6.45
2022-12-23T04:20:08.334Z,6.45
2022-12-23T04:21:10.376Z,6.44
2022-12-23T04:22:13.848Z,6.44
2022-12-23T04:23:15.880Z,6.44
2022-12-23T04:24:18.892Z,6.44
2022-12-23T04:25:20.920Z,6.43
2022-12-23T04:26:23.924Z,6.44
2022-12-23T04:27:26.033Z,6.43
2022-12-23T04:28:29.031Z,6.43
2022-12-23T04:29:31.136Z,6.44
2022-12-23T04:30:34.951Z,6.44
2022-12-23T04:31:37.412Z,6.44
2022-12-23T04:32:40.728Z,6.44
2022-12-23T04:33:44.263Z,6.44
2022-12-23T04:34:47.567Z,6.41
2022-12-23T04:35:49.694Z,6.41
2022-12-23T04:36:52.750Z,6.41
2022-12-23T04:37:54.909Z,6.41
2022-12-23T04:38:57.974Z,6.38
2022-12-23T04:40:00.202Z,6.38
2022-12-23T04:41:03.294Z,6.36
2022-12-23T04:42:05.446Z,6.36
2022-12-23T04:43:08.565Z,6.36
2022-12-23T04:44:10.569Z,6.35
2022-12-23T04:45:13.652Z,6.32
2022-12-23T04:46:15.688Z,6.32
2022-12-23T04:47:18.857Z,6.31
2022-12-23T04:48:21.021Z,6.30
2022-12-23T04:49:25.463Z,6.30
2022-12-23T04:50:27.566Z,6.29
2022-12-23T04:51:30.732Z,6.28
2022-12-23T04:52:32.888Z,6.26
2022-12-23T04:53:37.610Z,6.24
2022-12-23T04:54:45.710Z,6.23
2022-12-23T04:55:51.368Z,6.23
2022-12-23T04:56:53.448Z,6.22
2022-12-23T04:57:56.459Z,6.22
2022-12-23T04:58:58.841Z,6.23
2022-12-23T05:00:01.961Z,6.23
2022-12-23T05:01:07.631Z,6.23
2022-12-23T05:02:09.955Z,6.24
2022-12-23T05:03:13.229Z,6.19
2022-12-23T05:04:15.441Z,6.25
2022-12-23T05:05:20.148Z,6.25
2022-12-23T05:06:22.132Z,6.25
2022-12-23T05:07:25.191Z,6.25
2022-12-23T05:08:27.473Z,6.25
2022-12-23T05:09:30.496Z,6.24
2022-12-23T05:10:32.913Z,6.22
2022-12-23T05:11:41.733Z,6.24
2022-12-23T05:12:44.256Z,6.23
2022-12-23T05:13:47.412Z,6.25
2022-12-23T05:14:49.399Z,6.24
2022-12-23T05:15:54.120Z,6.26
2022-12-23T05:16:59.652Z,6.26
2022-12-23T05:18:05.894Z,6.28
2022-12-23T05:19:08.997Z,6.27
2022-12-23T05:20:11.363Z,6.28
2022-12-23T05:21:15.971Z,6.27
2022-12-23T05:22:18.051Z,6.27
2022-12-23T05:23:21.086Z,6.26
2022-12-23T05:24:23.090Z,6.27
2022-12-23T05:25:26.172Z,6.26
2022-12-23T05:26:28.190Z,6.27
2022-12-23T05:27:31.253Z,6.26
2022-12-23T05:28:33.374Z,6.26
2022-12-23T05:29:36.408Z,6.26
2022-12-23T05:30:38.423Z,6.27
2022-12-23T05:31:41.553Z,6.27
2022-12-23T05:32:43.595Z,6.27
2022-12-23T05:33:46.746Z,6.28
2022-12-23T05:34:48.791Z,6.27
2022-12-23T05:35:51.841Z,6.26
2022-12-23T05:36:55.228Z,6.26
2022-12-23T05:37:58.439Z,6.24
2022-12-23T05:39:00.574Z,6.24
2022-12-23T05:40:03.618Z,6.24
2022-12-23T05:41:06.406Z,6.24
2022-12-23T05:42:09.587Z,6.24
2022-12-23T05:43:11.819Z,6.22
2022-12-23T05:44:14.858Z,6.23
2022-12-23T05:45:17.052Z,6.22
2022-12-23T05:46:26.193Z,6.22
2022-12-23T05:47:28.935Z,6.22
2022-12-23T05:48:31.936Z,6.22
2022-12-23T05:49:34.011Z,6.21
2022-12-23T05:50:38.707Z,6.21
2022-12-23T05:51:40.707Z,6.20
2022-12-23T05:52:45.179Z,6.20
2022-12-23T05:53:47.281Z,6.20
2022-12-23T05:54:50.310Z,6.20
2022-12-23T05:55:52.530Z,6.19
2022-12-23T05:56:55.650Z,6.19
2022-12-23T05:57:57.716Z,6.19
2022-12-23T05:59:01.038Z,6.18
2022-12-23T06:00:03.536Z,6.18
2022-12-23T06:01:15.478Z,6.15
2022-12-23T06:02:17.776Z,6.17
2022-12-23T06:03:21.018Z,6.16
2022-12-23T06:04:23.267Z,6.13
2022-12-23T06:05:26.339Z,6.12
2022-12-23T06:06:28.760Z,6.12
2022-12-23T06:07:31.768Z,6.11
2022-12-23T06:08:35.239Z,6.09
2022-12-23T06:09:38.310Z,6.08
2022-12-23T06:10:40.325Z,6.08
2022-12-23T06:11:43.355Z,6.07
2022-12-23T06:12:45.437Z,6.05
2022-12-23T06:13:48.564Z,6.02
2022-12-23T06:14:50.648Z,6.01
2022-12-23T06:15:53.733Z,6.00
2022-12-23T06:16:55.861Z,5.98
2022-12-23T06:17:58.982Z,5.98
2022-12-23T06:19:01.125Z,5.97
2022-12-23T06:20:04.405Z,5.96
2022-12-23T06:21:06.466Z,5.89
2022-12-23T06:22:09.482Z,5.95
2022-12-23T06:23:11.495Z,5.95
2022-12-23T06:24:15.895Z,5.94
2022-12-23T06:25:18.906Z,5.95
2022-12-23T06:26:21.377Z,5.94
2022-12-23T06:27:24.381Z,5.94
2022-12-23T06:28:27.521Z,5.94
2022-12-23T06:29:29.612Z,5.89
2022-12-23T06:30:32.595Z,5.93
2022-12-23T06:31:34.660Z,5.93
2022-12-23T06:32:38.848Z,5.85
2022-12-23T06:33:41.135Z,5.91
2022-12-23T06:34:44.169Z,5.91
2022-12-23T06:35:46.198Z,5.90
2022-12-23T06:36:49.271Z,5.88
2022-12-23T06:37:53.382Z,5.87
2022-12-23T06:38:56.400Z,5.87
2022-12-23T06:40:00.197Z,5.86
2022-12-23T06:41:03.343Z,5.85
2022-12-23T06:42:05.484Z,5.83
2022-12-23T06:43:08.563Z,5.83
2022-12-23T06:44:10.541Z,5.81
2022-12-23T06:45:13.610Z,5.80
2022-12-23T06:46:15.695Z,5.79
2022-12-23T06:47:18.780Z,5.79
2022-12-23T06:48:20.735Z,5.77
2022-12-23T06:49:23.753Z,5.77
2022-12-23T06:50:26.750Z,5.78
2022-12-23T06:51:28.792Z,5.79
2022-12-23T06:52:31.875Z,5.80
2022-12-23T06:53:33.867Z,5.80
2022-12-23T06:54:36.909Z,5.80
2022-12-23T06:55:40.317Z,5.81
2022-12-23T06:56:43.330Z,5.81
2022-12-23T06:57:45.619Z,5.80
2022-12-23T06:58:48.792Z,5.80
2022-12-23T06:59:50.741Z,5.79
2022-12-23T07:00:53.762Z,5.79
2022-12-23T07:01:55.988Z,5.78
2022-12-23T07:02:59.339Z,5.77
2022-12-23T07:04:01.981Z,5.77
2022-12-23T07:05:06.183Z,5.77
2022-12-23T07:06:08.740Z,5.76
2022-12-23T07:07:11.813Z,5.76
2022-12-23T07:08:13.977Z,5.76
2022-12-23T07:09:17.193Z,5.75
2022-12-23T07:10:19.223Z,5.76
2022-12-23T07:11:23.593Z,5.77
2022-12-23T07:12:25.605Z,5.76
2022-12-23T07:13:28.988Z,5.77
2022-12-23T07:14:31.068Z,5.78
2022-12-23T07:15:34.137Z,5.78
2022-12-23T07:16:36.234Z,5.78
2022-12-23T07:17:39.714Z,5.78
2022-12-23T07:18:42.751Z,5.77
2022-12-23T07:19:45.883Z,5.77
2022-12-23T07:20:47.936Z,5.76
2022-12-23T07:21:50.960Z,5.75
2022-12-23T07:22:54.210Z,5.75
2022-12-23T07:23:57.197Z,5.76
2022-12-23T07:24:59.178Z,5.75
2022-12-23T07:26:02.764Z,5.77
2022-12-23T07:27:07.166Z,5.76
2022-12-23T07:28:09.303Z,5.76
2022-12-23T07:29:12.387Z,5.76
2022-12-23T07:30:15.931Z,5.75
2022-12-23T07:31:17.950Z,5.75
2022-12-23T07:32:21.002Z,5.77
2022-12-23T07:33:22.926Z,5.77
2022-12-23T07:34:25.987Z,5.77
2022-12-23T07:35:28.595Z,5.78
2022-12-23T07:36:31.667Z,5.80
2022-12-23T07:37:33.708Z,5.79
2022-12-23T07:38:36.747Z,5.81
2022-12-23T07:39:38.796Z,5.82
2022-12-23T07:40:41.765Z,5.80
2022-12-23T07:41:43.776Z,5.80
2022-12-23T07:42:51.487Z,5.77
2022-12-23T07:43:53.467Z,5.81
2022-12-23T07:44:56.508Z,5.82
2022-12-23T07:46:00.668Z,5.83
2022-12-23T07:47:04.125Z,5.83
2022-12-23T07:48:06.554Z,5.84
2022-12-23T07:49:09.667Z,5.84
2022-12-23T07:50:12.690Z,5.82
2022-12-23T07:51:15.719Z,5.84
2022-12-23T07:52:17.728Z,5.85
2022-12-23T07:53:20.719Z,5.85
2022-12-23T07:54:23.922Z,5.86
2022-12-23T07:55:26.002Z,5.85
2022-12-23T07:56:28.979Z,5.86
2022-12-23T07:57:37.384Z,5.86
2022-12-23T07:58:41.752Z,5.85
2022-12-23T07:59:43.767Z,5.85
2022-12-23T08:00:46.821Z,5.86
2022-12-23T08:01:48.896Z,5.87
2022-12-23T08:02:52.135Z,5.87
2022-12-23T08:03:54.237Z,5.87
2022-12-23T08:04:57.281Z,5.88
2022-12-23T08:06:01.742Z,5.89
2022-12-23T08:07:03.770Z,5.89
2022-12-23T08:08:06.867Z,5.89
2022-12-23T08:09:09.530Z,5.91
2022-12-23T08:10:13.650Z,5.91
2022-12-23T08:11:17.898Z,5.91
2022-12-23T08:12:19.915Z,5.92
2022-12-23T08:13:22.984Z,5.92
2022-12-23T08:14:26.371Z,5.92
2022-12-23T08:15:29.377Z,5.93
2022-12-23T08:16:36.494Z,5.93
2022-12-23T08:17:41.724Z,5.94
2022-12-23T08:18:44.715Z,5.93
2022-12-23T08:19:46.903Z,5.95
2022-12-23T08:20:55.508Z,5.96
2022-12-23T08:21:58.535Z,5.97
2022-12-23T08:23:00.500Z,5.98
2022-12-23T08:24:03.517Z,5.99
2022-12-23T08:25:06.730Z,6.01
2022-12-23T08:26:12.148Z,6.02
2022-12-23T08:27:14.463Z,6.02
2022-12-23T08:28:17.533Z,6.02
2022-12-23T08:29:20.502Z,6.02
2022-12-23T08:30:23.872Z,6.02
2022-12-23T08:31:30.160Z,6.02
2022-12-23T08:32:32.363Z,6.03
2022-12-23T08:33:36.385Z,6.04
2022-12-23T08:34:39.520Z,6.03
2022-12-23T08:35:41.511Z,6.05
2022-12-23T08:36:44.535Z,6.05
2022-12-23T08:37:46.770Z,6.06
2022-12-23T08:38:50.769Z,6.07
2022-12-23T08:39:52.968Z,6.06
2022-12-23T08:40:55.978Z,6.06
2022-12-23T08:41:59.048Z,6.07
2022-12-23T08:43:02.036Z,6.07
2022-12-23T08:44:04.171Z,6.08
2022-12-23T08:45:07.935Z,6.08
2022-12-23T08:46:11.498Z,6.08
2022-12-23T08:47:14.614Z,6.09
2022-12-23T08:48:17.106Z,6.11
2022-12-23T08:49:20.138Z,6.10
2022-12-23T08:50:22.313Z,6.13
2022-12-23T08:51:26.898Z,6.12
2022-12-23T08:52:28.922Z,6.13
2022-12-23T08:53:32.002Z,6.16
2022-12-23T08:54:34.039Z,6.16
2022-12-23T08:55:40.966Z,6.18
2022-12-23T08:56:43.172Z,6.18
2022-12-23T08:57:46.206Z,6.21
2022-12-23T08:58:52.674Z,6.21
2022-12-23T08:59:55.710Z,6.22
2022-12-23T09:00:58.267Z,6.22
2022-12-23T09:02:03.526Z,6.22
2022-12-23T09:03:07.532Z,6.22
2022-12-23T09:04:11.401Z,6.22
2022-12-23T09:05:14.013Z,6.23
2022-12-23T09:06:26.458Z,6.25
2022-12-23T09:07:32.019Z,6.24
2022-12-23T09:08:34.187Z,6.27
2022-12-23T09:09:38.758Z,6.27
2022-12-23T09:10:43.078Z,6.28
2022-12-23T09:11:46.277Z,6.29
2022-12-23T09:12:48.450Z,6.29
2022-12-23T09:13:52.392Z,6.30
2022-12-23T09:14:57.702Z,6.29
2022-12-23T09:16:00.900Z,6.30
2022-12-23T09:17:05.330Z,6.31
2022-12-23T09:18:07.429Z,6.31
2022-12-23T09:19:10.462Z,6.32
2022-12-23T09:20:12.895Z,6.32
2022-12-23T09:21:18.228Z,6.35
2022-12-23T09:22:20.214Z,6.36
2022-12-23T09:23:23.302Z,6.37
2022-12-23T09:24:26.288Z,6.38
2022-12-23T09:25:28.531Z,6.40
2022-12-23T09:26:33.046Z,6.41
2022-12-23T09:27:36.056Z,6.42
2022-12-23T09:28:39.730Z,6.43
2022-12-23T09:29:43.467Z,6.45
2022-12-23T09:30:45.549Z,6.45
2022-12-23T09:31:48.673Z,6.46
2022-12-23T09:32:52.119Z,6.47
2022-12-23T09:33:55.552Z,6.48
2022-12-23T09:34:58.918Z,6.48
2022-12-23T09:36:02.298Z,6.48
2022-12-23T09:37:04.394Z,6.50
2022-12-23T09:38:07.795Z,6.50
2022-12-23T09:39:11.381Z,6.49
2022-12-23T09:40:15.798Z,6.49
2022-12-23T09:41:32.592Z,6.48
2022-12-23T09:42:50.160Z,6.47
2022-12-23T09:43:59.956Z,6.47
2022-12-23T09:45:15.904Z,6.47
2022-12-23T09:46:22.907Z,6.45
2022-12-23T09:47:29.308Z,6.46
2022-12-23T09:48:38.863Z,6.45
2022-12-23T09:49:48.452Z,6.45
2022-12-23T09:50:50.553Z,6.44
2022-12-23T09:52:00.224Z,6.44
2022-12-23T09:53:06.315Z,6.43
2022-12-23T09:54:17.432Z,6.41
2022-12-23T09:55:23.377Z,6.40
2022-12-23T09:56:32.268Z,6.38
2022-12-23T09:57:41.889Z,6.36
2022-12-23T09:58:50.183Z,6.36
2022-12-23T10:00:06.940Z,6.33
2022-12-23T10:01:17.573Z,6.36
2022-12-23T10:02:28.257Z,6.36
2022-12-23T10:03:36.049Z,6.36
2022-12-23T10:04:53.039Z,6.36
2022-12-23T10:06:03.513Z,6.35
2022-12-23T10:07:19.103Z,6.35
2022-12-23T10:08:29.772Z,6.35
2022-12-23T10:09:33.080Z,6.35
2022-12-23T10:10:39.743Z,6.36
2022-12-23T10:11:44.487Z,6.36
2022-12-23T10:12:51.373Z,6.38
2022-12-23T10:13:59.438Z,6.41
2022-12-23T10:15:03.506Z,6.42
2022-12-23T10:16:09.711Z,6.44
2022-12-23T10:17:16.301Z,6.45
2022-12-23T10:18:25.601Z,6.45
2022-12-23T10:19:33.338Z,6.46
2022-12-23T10:20:43.980Z,6.48
2022-12-23T10:21:49.947Z,6.50
2022-12-23T10:22:53.289Z,6.51
2022-12-23T10:23:56.727Z,6.53
2022-12-23T10:25:00.618Z,6.52
2022-12-23T10:26:08.774Z,6.53
2022-12-23T10:27:23.220Z,6.54
2022-12-23T10:28:29.667Z,6.55
2022-12-23T10:29:34.684Z,6.57
2022-12-23T10:32:12.927Z,6.59
2022-12-23T10:33:23.154Z,6.61
2022-12-23T10:34:38.650Z,6.62
2022-12-23T10:35:49.551Z,6.63
2022-12-23T10:37:02.085Z,6.64
2022-12-23T10:38:19.493Z,6.65
2022-12-23T10:39:36.377Z,6.66
2022-12-23T10:40:54.178Z,6.68
2022-12-23T10:42:09.002Z,6.68
2022-12-23T10:43:21.546Z,6.68
2022-12-23T10:44:47.350Z,6.69
2022-12-23T10:45:59.604Z,6.70
2022-12-23T10:47:15.759Z,6.72
2022-12-23T10:48:32.932Z,6.73
2022-12-23T10:49:47.947Z,6.75
2022-12-23T10:50:58.407Z,6.78
2022-12-23T10:52:06.824Z,6.81
2022-12-23T10:53:13.034Z,6.83
2022-12-23T10:54:21.976Z,6.85
2022-12-23T10:55:33.409Z,6.88
2022-12-23T10:56:37.237Z,6.89
2022-12-23T10:57:39.766Z,6.91
2022-12-23T10:58:46.263Z,6.92
2022-12-23T10:59:49.305Z,6.91
2022-12-23T11:00:55.076Z,6.86
2022-12-23T11:02:05.561Z,6.90
2022-12-23T11:03:16.376Z,6.90
2022-12-23T11:04:21.199Z,6.90
2022-12-23T11:05:28.338Z,6.88
2022-12-23T11:06:37.539Z,6.87
2022-12-23T11:07:45.800Z,6.87
2022-12-23T11:08:49.791Z,6.86
2022-12-23T11:09:54.759Z,6.83
2022-12-23T11:11:00.119Z,6.87
2022-12-23T11:12:04.731Z,6.86
2022-12-23T11:13:08.012Z,6.87
2022-12-23T11:14:31.091Z,6.86
2022-12-23T11:15:36.972Z,6.86
2022-12-23T11:16:46.039Z,6.84
2022-12-23T11:17:59.907Z,6.83
2022-12-23T11:19:06.047Z,6.82
2022-12-23T11:20:14.391Z,6.80
2022-12-23T11:21:16.621Z,6.81
2022-12-23T11:22:26.496Z,6.79
2022-12-23T11:23:30.787Z,6.78
2022-12-23T11:24:39.560Z,6.78
2022-12-23T11:25:47.313Z,6.78
2022-12-23T11:26:59.389Z,6.78
2022-12-23T11:28:06.565Z,6.78
2022-12-23T11:29:13.656Z,6.78
2022-12-23T11:30:19.853Z,6.77
2022-12-23T11:31:28.646Z,6.79
2022-12-23T11:32:37.931Z,6.80
2022-12-23T11:33:46.664Z,6.78
2022-12-23T11:34:51.311Z,6.79
2022-12-23T11:36:03.360Z,6.79
2022-12-23T11:37:07.664Z,6.79
2022-12-23T11:38:18.260Z,6.79
2022-12-23T11:39:27.674Z,6.79
2022-12-23T11:40:32.877Z,6.81
2022-12-23T11:41:38.866Z,6.82
2022-12-23T11:42:41.695Z,6.83
2022-12-23T11:43:44.923Z,6.84
2022-12-23T11:44:51.913Z,6.84
2022-12-23T11:46:17.751Z,6.86
2022-12-23T11:47:29.402Z,6.88
2022-12-23T11:48:31.802Z,6.92
2022-12-23T11:49:35.294Z,6.94
2022-12-23T11:50:38.789Z,6.96
2022-12-23T11:51:43.007Z,7.00
2022-12-23T11:52:52.553Z,7.02
2022-12-23T11:54:02.563Z,7.05
2022-12-23T11:55:08.893Z,7.10
2022-12-23T11:56:16.041Z,7.13
2022-12-23T11:57:26.015Z,7.16
2022-12-23T11:58:30.280Z,7.22
2022-12-23T11:59:37.725Z,7.25
2022-12-23T12:00:55.368Z,7.30
2022-12-23T12:02:01.693Z,7.33
2022-12-23T12:03:08.171Z,7.38
2022-12-23T12:04:21.881Z,7.40
2022-12-23T12:05:32.024Z,7.45
2022-12-23T12:06:36.130Z,7.48
2022-12-23T12:07:44.065Z,7.50
2022-12-23T12:08:51.222Z,7.50
2022-12-23T12:09:58.873Z,7.52
2022-12-23T12:11:08.804Z,7.54
2022-12-23T12:12:16.399Z,7.56
2022-12-23T12:13:26.000Z,7.60
2022-12-23T12:14:37.909Z,7.64
2022-12-23T12:15:45.749Z,7.66
2022-12-23T12:16:56.074Z,7.68
2022-12-23T12:18:00.307Z,7.70
2022-12-23T12:19:08.681Z,7.72
2022-12-23T12:20:15.673Z,7.73
2022-12-23T12:21:23.073Z,7.72
2022-12-23T12:22:34.824Z,7.70
2022-12-23T12:23:47.873Z,7.68
2022-12-23T12:24:56.471Z,7.64
2022-12-23T12:26:03.185Z,7.62
2022-12-23T12:27:07.592Z,7.60
2022-12-23T12:28:16.114Z,7.60
2022-12-23T12:29:25.587Z,7.59
2022-12-23T12:30:33.288Z,7.58
2022-12-23T12:31:42.189Z,7.55
2022-12-23T12:32:55.183Z,7.52
2022-12-23T12:34:05.405Z,7.49
2022-12-23T12:35:16.167Z,7.47
2022-12-23T12:36:25.848Z,7.44
2022-12-23T12:37:42.105Z,7.42
2022-12-23T12:38:49.255Z,7.41
2022-12-23T12:39:56.003Z,7.41
2022-12-23T12:41:04.011Z,7.42
2022-12-23T12:42:14.596Z,7.43
2022-12-23T12:43:25.173Z,7.45
2022-12-23T12:44:30.996Z,7.47
2022-12-23T12:45:40.479Z,7.50
2022-12-23T12:46:47.176Z,7.50
2022-12-23T12:48:16.333Z,7.51
2022-12-23T12:49:28.116Z,7.53
2022-12-23T12:50:33.861Z,7.54
2022-12-23T12:51:46.048Z,7.55
2022-12-23T12:52:51.377Z,7.56
2022-12-23T12:54:05.997Z,7.57
2022-12-23T12:55:17.376Z,7.60
2022-12-23T12:56:28.160Z,7.61
2022-12-23T12:57:34.733Z,7.64
2022-12-23T12:58:38.852Z,7.65
2022-12-23T12:59:41.879Z,7.65
2022-12-23T13:00:56.110Z,7.69
2022-12-23T13:02:26.925Z,7.71
2022-12-23T13:03:53.162Z,7.71
2022-12-23T13:05:40.632Z,7.72
2022-12-23T13:06:53.737Z,7.71
2022-12-23T13:08:09.048Z,7.72
2022-12-23T13:09:22.093Z,7.72
2022-12-23T13:10:37.055Z,7.73
2022-12-23T13:11:47.542Z,7.73
2022-12-23T13:12:57.232Z,7.73
2022-12-23T13:14:13.799Z,7.73
2022-12-23T13:15:23.109Z,7.72
2022-12-23T13:16:40.812Z,7.71
2022-12-23T13:17:51.127Z,7.70
2022-12-23T13:19:01.226Z,7.69
2022-12-23T13:20:13.383Z,7.68
2022-12-23T13:21:24.937Z,7.67
2022-12-23T13:22:31.415Z,7.63
2022-12-23T13:23:44.607Z,7.66
2022-12-23T13:24:59.117Z,7.64
2022-12-23T13:26:09.761Z,7.63
2022-12-23T13:27:18.821Z,7.60
2022-12-23T13:28:34.298Z,7.59
2022-12-23T13:29:57.605Z,7.58
2022-12-23T13:31:09.487Z,7.56
2022-12-23T13:32:18.575Z,7.56
2022-12-23T13:33:30.872Z,7.54
2022-12-23T13:34:44.107Z,7.52
2022-12-23T13:36:09.259Z,7.50
2022-12-23T13:37:22.989Z,7.49
2022-12-23T13:38:40.204Z,7.45
2022-12-23T13:39:57.010Z,7.42
2022-12-23T13:41:11.020Z,7.40
2022-12-23T13:42:25.259Z,7.38
2022-12-23T13:43:37.337Z,7.36
2022-12-23T13:44:41.327Z,7.36
2022-12-23T13:45:46.310Z,7.35
2022-12-23T13:46:59.178Z,7.34
2022-12-23T13:48:19.023Z,7.33
2022-12-23T13:49:32.973Z,7.33
2022-12-23T13:50:43.069Z,7.32
2022-12-23T13:51:53.407Z,7.31
2022-12-23T13:53:10.534Z,7.30
2022-12-23T13:54:22.935Z,7.28
2022-12-23T13:55:51.723Z,7.29
2022-12-23T13:57:08.073Z,7.27
2022-12-23T13:58:17.104Z,7.26
2022-12-23T13:59:21.247Z,7.25
2022-12-23T14:00:27.400Z,7.26
2022-12-23T14:01:37.815Z,7.23
2022-12-23T14:02:51.419Z,7.23
2022-12-23T14:03:54.502Z,7.21
2022-12-23T14:05:02.878Z,7.21
2022-12-23T14:06:30.484Z,7.16
2022-12-23T14:07:39.127Z,7.19
2022-12-23T14:08:44.661Z,7.19
2022-12-23T14:09:54.630Z,7.17
2022-12-23T14:10:59.958Z,7.17
2022-12-23T14:12:27.066Z,7.14
2022-12-23T14:13:35.308Z,7.15
2022-12-23T14:14:45.273Z,7.13
2022-12-23T14:16:10.870Z,7.13
2022-12-23T14:17:21.143Z,7.08
2022-12-23T14:18:49.702Z,7.11
2022-12-23T14:20:06.024Z,7.10
2022-12-23T14:21:18.431Z,7.09
2022-12-23T14:22:53.228Z,7.08
2022-12-23T14:24:28.229Z,7.07
2022-12-23T14:26:12.690Z,7.06
2022-12-23T14:27:36.313Z,7.04
2022-12-23T14:29:02.346Z,7.03
2022-12-23T14:30:13.110Z,6.98
2022-12-23T14:31:33.580Z,7.04
2022-12-23T14:32:44.447Z,7.03
2022-12-23T14:33:50.158Z,7.02
2022-12-23T14:35:20.180Z,7.01
2022-12-23T14:36:25.637Z,7.01
2022-12-23T14:37:37.581Z,7.01
2022-12-23T14:38:41.374Z,7.00
2022-12-23T14:39:44.487Z,7.00
2022-12-23T14:40:54.413Z,7.00
2022-12-23T14:42:05.224Z,6.99
2022-12-23T14:43:51.268Z,6.99
2022-12-23T14:44:54.883Z,7.01
2022-12-23T14:45:59.196Z,7.00
2022-12-23T14:47:03.167Z,6.99
2022-12-23T14:49:22.576Z,6.99
2022-12-23T14:50:40.572Z,6.98
2022-12-23T14:51:44.092Z,6.95
2022-12-23T14:53:01.218Z,6.96
2022-12-23T14:54:16.533Z,6.95
2022-12-23T14:55:41.438Z,6.92
2022-12-23T14:57:01.732Z,6.93
2022-12-23T14:58:13.720Z,6.93
2022-12-23T14:59:28.832Z,6.94
2022-12-23T15:00:31.824Z,6.93